Time;durP1;ratioP1;P1;durP2;ratioP2;P2;SDS_P1;SDS_P2;PMS_P1;PMS_P2;Temp;Humidity;BMP_temperature;BMP_pressure;BME280_temperature;BME280_humidity;BME280_pressure;Samples;Min_cycle;Max_cycle;Signal;HPM_P1;HPM_P2
2023/05/06 00:02:24;;;;;;;10.23;6.80;;;14.20;92.20;;;;;;5073009;28;20025;-73
2023/05/06 00:04:50;;;;;;;11.43;7.43;;;14.20;92.50;;;;;;5072879;28;20032;-73
2023/05/06 00:07:16;;;;;;;11.95;6.72;;;14.20;92.30;;;;;;5073699;28;20029;-73
2023/05/06 00:09:41;;;;;;;11.00;7.45;;;14.30;92.40;;;;;;5072714;28;20039;-73
2023/05/06 00:12:07;;;;;;;13.23;7.45;;;14.30;92.30;;;;;;5073603;28;20032;-73
2023/05/06 00:14:32;;;;;;;10.70;7.10;;;14.30;92.50;;;;;;5073579;28;20032;-73
2023/05/06 00:16:58;;;;;;;10.98;7.13;;;14.30;92.50;;;;;;5072530;28;20033;-73
2023/05/06 00:19:24;;;;;;;13.18;6.70;;;14.40;92.50;;;;;;5072805;28;20018;-73
2023/05/06 00:21:49;;;;;;;10.02;6.13;;;14.40;92.40;;;;;;5073455;28;20041;-73
2023/05/06 00:24:15;;;;;;;9.65;6.35;;;14.40;92.40;;;;;;5072427;28;20036;-73
2023/05/06 00:26:40;;;;;;;13.65;7.57;;;14.50;92.20;;;;;;5072367;28;20040;-73
2023/05/06 00:29:06;;;;;;;10.88;6.93;;;14.50;92.20;;;;;;5073375;28;20022;-73
2023/05/06 00:31:32;;;;;;;10.38;7.00;;;14.50;92.20;;;;;;5072393;28;20554;-73
2023/05/06 00:33:57;;;;;;;11.40;7.10;;;14.50;92.20;;;;;;5072248;28;20029;-73
2023/05/06 00:36:23;;;;;;;11.75;7.18;;;14.50;92.20;;;;;;5072423;28;20096;-73
2023/05/06 00:38:49;;;;;;;13.75;8.25;;;14.40;92.20;;;;;;5073216;28;20029;-73
2023/05/06 00:41:15;;;;;;;10.68;7.30;;;14.40;92.30;;;;;;5072299;28;20192;-73
2023/05/06 00:43:40;;;;;;;13.43;7.80;;;14.40;92.30;;;;;;5071994;28;20060;-73
2023/05/06 00:46:09;;;;;;;13.35;7.85;;;14.40;92.30;;;;;;5039052;28;20028;-73
2023/05/06 00:48:35;;;;;;;14.38;8.93;;;14.40;92.40;;;;;;5073128;28;20036;-73
2023/05/06 00:51:01;;;;;;;12.02;8.00;;;14.30;92.50;;;;;;5073104;28;20025;-73
2023/05/06 00:53:26;;;;;;;10.50;7.40;;;14.30;92.60;;;;;;5071918;28;20044;-73
2023/05/06 00:55:52;;;;;;;11.25;6.63;;;14.20;92.40;;;;;;5073023;28;20072;-73
2023/05/06 00:58:19;;;;;;;8.70;5.95;;;14.20;92.30;;;;;;5071978;28;20048;-73
2023/05/06 01:00:44;;;;;;;9.93;6.60;;;14.20;92.10;;;;;;5072909;28;20016;-73
2023/05/06 01:03:10;;;;;;;11.15;7.00;;;14.10;92.00;;;;;;5072079;28;20025;-73
2023/05/06 01:06:14;;;;;;;15.52;7.90;;;14.10;92.00;;;;;;5072947;28;20025;-73
2023/05/06 01:08:57;;;;;;;13.85;8.02;;;14.10;92.10;;;;;;5072920;28;20028;-73
2023/05/06 01:11:36;;;;;;;14.35;8.40;;;14.00;92.40;;;;;;5072958;28;20021;-73
2023/05/06 01:14:12;;;;;;;12.90;7.00;;;14.00;92.60;;;;;;5076095;28;20049;-73
2023/05/06 01:16:39;;;;;;;8.63;6.00;;;14.00;92.60;;;;;;5077001;28;20032;-73
2023/05/06 01:19:09;;;;;;;12.13;6.72;;;14.00;92.40;;;;;;5076884;28;20116;-73
2023/05/06 01:21:36;;;;;;;10.43;6.63;;;14.00;92.30;;;;;;5075757;28;20021;-73
2023/05/06 01:24:02;;;;;;;9.50;6.55;;;14.00;92.20;;;;;;5076814;28;20028;-73
2023/05/06 01:26:28;;;;;;;9.55;6.57;;;14.00;92.10;;;;;;5075822;28;20025;-73
2023/05/06 01:28:54;;;;;;;12.52;6.95;;;14.00;92.10;;;;;;5076692;28;20056;-73
2023/05/06 01:31:38;;;;;;;11.43;6.97;;;14.00;92.10;;;;;;5075902;28;20033;-73
2023/05/06 01:34:42;;;;;;;11.13;6.93;;;14.00;92.00;;;;;;5076680;28;20060;-73
2023/05/06 01:37:46;;;;;;;10.68;6.18;;;13.90;92.00;;;;;;5075548;28;20092;-73
2023/05/06 01:40:14;;;;;;;8.43;5.85;;;13.90;91.90;;;;;;5076448;28;20052;-73
2023/05/06 01:42:40;;;;;;;9.85;6.05;;;13.80;91.90;;;;;;5076254;28;20045;-73
2023/05/06 01:45:08;;;;;;;7.78;4.93;;;13.80;91.80;;;;;;5075529;28;20033;-73
2023/05/06 01:47:35;;;;;;;7.55;5.10;;;13.80;91.60;;;;;;5075445;28;20082;-73
2023/05/06 01:50:02;;;;;;;8.13;5.25;;;13.70;91.30;;;;;;5076322;28;20053;-73
2023/05/06 01:52:27;;;;;;;8.90;5.95;;;13.60;91.20;;;;;;5076275;28;20035;-73
2023/05/06 01:54:53;;;;;;;8.80;5.43;;;13.50;91.40;;;;;;5076358;28;20021;-73
2023/05/06 01:57:18;;;;;;;13.88;6.63;;;13.50;91.50;;;;;;5075244;28;20033;-73
2023/05/06 01:59:44;;;;;;;10.10;6.00;;;13.50;91.50;;;;;;5075109;28;20036;-73
2023/05/06 02:02:10;;;;;;;11.02;6.50;;;13.50;91.50;;;;;;5076076;28;20036;-73
2023/05/06 02:04:35;;;;;;;9.55;5.57;;;13.50;91.50;;;;;;5076069;28;20021;-73
2023/05/06 02:07:01;;;;;;;8.18;5.50;;;13.50;91.50;;;;;;5075052;28;20055;-73
2023/05/06 02:09:26;;;;;;;7.68;5.45;;;13.40;91.60;;;;;;5075935;28;20042;-73
2023/05/06 02:11:52;;;;;;;6.72;4.47;;;13.40;91.50;;;;;;5076003;28;20029;-73
2023/05/06 02:14:17;;;;;;;6.10;4.28;;;13.20;91.30;;;;;;5058299;28;20033;-73
2023/05/06 02:16:43;;;;;;;5.32;4.05;;;13.20;91.50;;;;;;5074968;28;20025;-73
2023/05/06 02:19:09;;;;;;;6.32;4.43;;;13.20;91.50;;;;;;5058154;28;20499;-73
2023/05/06 02:21:35;;;;;;;7.60;5.40;;;13.20;91.50;;;;;;5075797;28;20033;-73
2023/05/06 02:24:00;;;;;;;6.78;4.88;;;13.30;91.40;;;;;;5074095;28;20044;-73
2023/05/06 02:26:26;;;;;;;6.60;4.88;;;13.20;91.50;;;;;;5074475;28;20025;-73
2023/05/06 02:28:52;;;;;;;6.65;4.65;;;13.20;91.60;;;;;;5074734;28;20029;-73
2023/05/06 02:31:17;;;;;;;5.75;4.35;;;13.20;91.60;;;;;;5075521;28;20036;-73
2023/05/06 02:33:44;;;;;;;5.85;4.25;;;13.20;91.50;;;;;;5075446;28;20035;-73
2023/05/06 02:36:10;;;;;;;5.25;4.03;;;13.20;91.30;;;;;;5075473;28;20029;-73
2023/05/06 02:38:36;;;;;;;4.82;3.72;;;13.20;91.30;;;;;;5074522;28;20036;-73
2023/05/06 02:41:02;;;;;;;5.20;4.10;;;13.10;91.20;;;;;;5074350;28;20040;-73
2023/05/06 02:43:28;;;;;;;4.95;3.83;;;13.10;91.10;;;;;;5074162;28;20050;-73
2023/05/06 02:45:53;;;;;;;5.97;4.38;;;13.10;91.00;;;;;;5074393;28;20103;-73
2023/05/06 02:48:19;;;;;;;5.93;4.05;;;13.00;91.00;;;;;;5075209;28;20029;-73
2023/05/06 02:50:45;;;;;;;5.20;3.85;;;12.90;91.10;;;;;;5057530;28;20052;-73
2023/05/06 02:53:12;;;;;;;4.65;3.70;;;12.90;91.20;;;;;;5075145;28;20029;-73
2023/05/06 02:55:37;;;;;;;4.57;3.47;;;12.90;91.20;;;;;;5074220;28;20025;-73
2023/05/06 02:58:03;;;;;;;3.72;3.22;;;12.90;91.20;;;;;;5075054;28;20049;-73
2023/05/06 03:00:29;;;;;;;4.53;3.80;;;12.90;91.10;;;;;;5057378;28;20025;-73
2023/05/06 03:02:55;;;;;;;5.03;3.40;;;12.90;90.90;;;;;;5074953;28;20021;-73
2023/05/06 03:05:21;;;;;;;5.60;4.18;;;12.90;90.90;;;;;;5074912;28;20029;-73
2023/05/06 03:07:46;;;;;;;7.47;4.32;;;12.90;90.90;;;;;;5074835;28;20032;-73
2023/05/06 03:10:12;;;;;;;5.30;4.05;;;12.90;91.00;;;;;;5074839;28;20029;-73
2023/05/06 03:12:38;;;;;;;6.18;3.97;;;12.80;91.20;;;;;;5073899;28;20037;-73
2023/05/06 03:15:04;;;;;;;4.88;3.60;;;12.80;91.20;;;;;;5074733;28;20056;-73
2023/05/06 03:17:30;;;;;;;4.72;3.58;;;12.70;91.30;;;;;;5074697;28;20048;-73
2023/05/06 03:19:55;;;;;;;4.90;3.85;;;12.70;91.40;;;;;;5074539;28;20052;-73
2023/05/06 03:22:21;;;;;;;6.82;3.72;;;12.70;91.40;;;;;;5073582;28;20035;-73
2023/05/06 03:24:47;;;;;;;4.30;3.58;;;12.70;91.30;;;;;;5074533;28;20048;-73
2023/05/06 03:27:12;;;;;;;7.30;3.85;;;12.70;91.20;;;;;;5073710;28;20021;-73
2023/05/06 03:29:38;;;;;;;5.25;4.05;;;12.70;91.20;;;;;;5074452;28;20079;-73
2023/05/06 03:32:04;;;;;;;5.43;4.10;;;12.70;91.20;;;;;;5073442;28;20010;-73
2023/05/06 03:34:30;;;;;;;6.35;4.28;;;12.70;91.50;;;;;;5074448;28;20023;-73
2023/05/06 03:36:56;;;;;;;5.45;4.10;;;12.70;91.10;;;;;;5074294;28;20554;-73
2023/05/06 03:39:22;;;;;;;7.28;4.63;;;12.60;91.00;;;;;;5074267;28;20021;-73
2023/05/06 03:41:48;;;;;;;4.88;3.70;;;12.60;90.90;;;;;;5073989;28;20052;-73
2023/05/06 03:44:13;;;;;;;5.80;3.80;;;12.60;91.00;;;;;;5074175;28;20021;-73
2023/05/06 03:46:40;;;;;;;8.80;4.70;;;12.60;91.00;;;;;;5074133;28;20025;-73
2023/05/06 03:49:06;;;;;;;5.85;4.20;;;12.60;91.10;;;;;;5074075;28;20021;-73
2023/05/06 03:51:32;;;;;;;9.15;4.80;;;12.60;91.20;;;;;;5074058;28;20044;-73
2023/05/06 03:53:58;;;;;;;7.00;4.40;;;12.60;91.10;;;;;;5074020;28;20028;-73
2023/05/06 03:56:24;;;;;;;8.45;4.18;;;12.50;91.00;;;;;;5072968;28;20025;-73
2023/05/06 03:58:49;;;;;;;8.13;5.13;;;12.50;91.20;;;;;;5072848;28;20032;-73
2023/05/06 04:01:16;;;;;;;7.60;5.55;;;12.50;91.20;;;;;;5072903;28;20056;-73
2023/05/06 04:03:43;;;;;;;7.78;5.55;;;12.50;91.20;;;;;;5073802;28;20028;-73
2023/05/06 04:06:08;;;;;;;6.38;4.88;;;12.40;91.20;;;;;;5073910;28;20040;-73
2023/05/06 04:08:34;;;;;;;6.72;4.32;;;12.40;91.30;;;;;;5073837;28;20047;-73
2023/05/06 04:11:06;;;;;;;7.53;4.82;;;12.50;91.30;;;;;;5073655;28;20039;-73
2023/05/06 04:13:34;;;;;;;6.20;4.40;;;12.50;91.20;;;;;;5073698;28;20032;-73
2023/05/06 04:16:01;;;;;;;5.00;3.80;;;12.40;91.20;;;;;;5072563;28;20032;-73
2023/05/06 04:18:27;;;;;;;5.13;3.78;;;12.50;91.20;;;;;;5073586;28;20021;-73
2023/05/06 04:20:52;;;;;;;5.78;4.25;;;12.50;91.20;;;;;;5073567;28;20059;-73
2023/05/06 04:23:19;;;;;;;8.57;5.00;;;12.50;91.10;;;;;;5073440;28;20021;-73
2023/05/06 04:25:47;;;;;;;9.93;5.78;;;12.50;91.10;;;;;;5072525;28;20028;-73
2023/05/06 04:28:15;;;;;;;10.15;5.38;;;12.50;91.20;;;;;;5056044;28;20508;-73
2023/05/06 04:30:42;;;;;;;7.05;4.72;;;12.40;91.10;;;;;;5073364;28;20510;-73
2023/05/06 04:33:08;;;;;;;7.97;4.90;;;12.20;91.20;;;;;;5073230;28;20084;-73
2023/05/06 04:35:33;;;;;;;7.32;5.13;;;12.20;91.40;;;;;;5073192;28;20044;-72
2023/05/06 04:37:59;;;;;;;7.90;5.40;;;12.20;91.40;;;;;;5072336;28;20032;-73
2023/05/06 04:40:26;;;;;;;7.72;5.15;;;12.10;91.40;;;;;;5072121;28;20031;-73
2023/05/06 04:42:52;;;;;;;7.13;4.88;;;12.20;91.50;;;;;;5055618;28;20105;-73
2023/05/06 04:45:18;;;;;;;8.10;5.35;;;12.20;91.50;;;;;;5073157;28;20052;-73
2023/05/06 04:47:44;;;;;;;8.73;5.15;;;12.10;91.60;;;;;;5071734;28;20024;-73
2023/05/06 04:50:10;;;;;;;8.20;5.15;;;12.20;91.70;;;;;;5073146;28;20028;-73
2023/05/06 04:52:36;;;;;;;7.70;5.28;;;12.20;91.70;;;;;;5073085;28;20029;-73
2023/05/06 04:55:02;;;;;;;7.72;4.85;;;12.30;91.60;;;;;;5073168;28;20029;-73
2023/05/06 04:57:29;;;;;;;7.40;5.05;;;12.30;91.70;;;;;;5073015;28;20036;-73
2023/05/06 04:59:55;;;;;;;7.15;4.85;;;12.30;91.70;;;;;;5072964;28;20029;-73
2023/05/06 05:02:21;;;;;;;7.10;4.65;;;12.30;91.80;;;;;;5072061;28;20055;-73
2023/05/06 05:04:46;;;;;;;9.52;5.03;;;12.30;91.80;;;;;;5072930;28;20059;-73
2023/05/06 05:07:12;;;;;;;8.65;5.10;;;12.40;91.90;;;;;;5072062;28;20028;-73
2023/05/06 05:09:37;;;;;;;6.70;4.85;;;12.40;91.90;;;;;;5072918;28;20045;-73
2023/05/06 05:12:03;;;;;;;7.22;5.15;;;12.40;92.00;;;;;;5072922;28;20035;-73
2023/05/06 05:14:29;;;;;;;8.88;5.22;;;12.40;92.40;;;;;;5072896;28;20032;-73
2023/05/06 05:16:55;;;;;;;8.88;5.93;;;12.30;92.50;;;;;;5072847;28;20029;-73
2023/05/06 05:19:20;;;;;;;9.65;6.43;;;12.40;92.70;;;;;;5071820;28;20123;-73
2023/05/06 05:21:46;;;;;;;8.77;6.00;;;12.40;92.90;;;;;;5071810;28;20060;-73
2023/05/06 05:24:12;;;;;;;9.20;6.10;;;12.50;93.00;;;;;;5071797;28;20018;-73
2023/05/06 05:26:37;;;;;;;10.82;6.22;;;12.60;93.20;;;;;;5072900;28;20476;-74
2023/05/06 05:29:03;;;;;;;11.63;6.78;;;12.60;93.50;;;;;;5071925;28;20018;-73
2023/05/06 05:31:30;;;;;;;10.43;6.82;;;12.60;93.70;;;;;;5072734;28;20060;-73
2023/05/06 05:33:56;;;;;;;13.02;7.65;;;12.70;93.70;;;;;;5072621;28;20017;-73
2023/05/06 05:36:22;;;;;;;14.15;7.75;;;12.70;93.80;;;;;;5072531;28;20029;-73
2023/05/06 05:38:48;;;;;;;11.48;7.90;;;12.80;93.90;;;;;;5072634;28;20085;-73
2023/05/06 05:41:14;;;;;;;14.82;8.93;;;12.90;94.10;;;;;;5054954;28;20025;-73
2023/05/06 05:43:39;;;;;;;15.15;8.43;;;12.90;94.00;;;;;;5071531;28;20045;-73
2023/05/06 05:46:05;;;;;;;15.27;8.95;;;13.00;94.20;;;;;;5072588;28;20044;-73
2023/05/06 05:48:31;;;;;;;14.10;8.68;;;13.10;94.20;;;;;;5054914;28;20068;-73
2023/05/06 05:50:57;;;;;;;13.73;9.05;;;13.10;94.20;;;;;;5055089;28;20112;-73
2023/05/06 05:53:23;;;;;;;15.77;8.63;;;13.20;94.40;;;;;;5072489;28;20439;-73
2023/05/06 05:55:49;;;;;;;16.52;10.15;;;13.20;94.50;;;;;;5071533;28;20112;-73
2023/05/06 05:58:14;;;;;;;15.20;9.90;;;13.20;94.50;;;;;;5054838;28;20043;-73
2023/05/06 06:00:40;;;;;;;18.90;9.90;;;13.30;94.70;;;;;;5057086;28;20039;-73
2023/05/06 06:03:06;;;;;;;15.88;9.15;;;13.30;94.80;;;;;;5075192;28;20036;-73
2023/05/06 06:05:31;;;;;;;16.27;10.00;;;13.40;95.00;;;;;;5075129;28;20064;-73
2023/05/06 06:07:58;;;;;;;15.38;9.52;;;13.40;95.30;;;;;;5076001;28;20025;-73
2023/05/06 06:10:23;;;;;;;14.13;9.10;;;13.40;95.40;;;;;;5075081;28;20033;-73
2023/05/06 06:12:49;;;;;;;17.92;10.10;;;13.40;95.90;;;;;;5075928;28;20048;-73
2023/05/06 06:15:15;;;;;;;17.00;9.82;;;13.40;96.10;;;;;;5075886;28;20068;-73
2023/05/06 06:17:40;;;;;;;16.60;9.77;;;13.50;96.20;;;;;;5075727;28;20056;-73
2023/05/06 06:20:07;;;;;;;14.45;9.07;;;13.50;96.30;;;;;;5075730;28;20047;-74
2023/05/06 06:22:32;;;;;;;16.60;9.40;;;13.50;96.60;;;;;;5074820;28;20025;-74
2023/05/06 06:24:58;;;;;;;16.23;9.32;;;13.50;96.60;;;;;;5075549;28;20040;-74
2023/05/06 06:27:23;;;;;;;17.65;9.77;;;13.50;96.50;;;;;;5075677;28;20021;-74
2023/05/06 06:29:49;;;;;;;15.93;9.60;;;13.60;96.40;;;;;;5075583;28;20024;-73
2023/05/06 06:32:15;;;;;;;15.48;9.90;;;13.70;96.70;;;;;;5074619;28;20036;-74
2023/05/06 06:34:41;;;;;;;17.20;10.10;;;13.70;97.00;;;;;;5075424;28;20017;-75
2023/05/06 06:37:09;;;;;;;15.40;9.70;;;13.90;97.40;;;;;;5074491;28;20029;-75
2023/05/06 06:39:34;;;;;;;15.13;9.40;;;13.80;97.40;;;;;;5074472;28;20017;-74
2023/05/06 06:42:03;;;;;;;13.65;8.77;;;13.90;97.40;;;;;;5057492;28;20065;-75
2023/05/06 06:44:29;;;;;;;13.98;8.75;;;13.80;97.40;;;;;;5074470;28;20025;-74
2023/05/06 06:46:55;;;;;;;16.10;9.63;;;13.90;97.40;;;;;;5075286;28;20021;-75
2023/05/06 06:49:20;;;;;;;15.77;9.70;;;13.90;97.30;;;;;;5075350;28;20048;-74
2023/05/06 06:51:46;;;;;;;15.25;9.32;;;13.90;97.40;;;;;;5075190;28;20032;-74
2023/05/06 06:54:11;;;;;;;14.63;9.52;;;13.90;97.00;;;;;;5075251;28;20033;-75
2023/05/06 06:56:37;;;;;;;15.50;9.57;;;13.90;96.80;;;;;;5074207;28;20125;-74
2023/05/06 06:59:03;;;;;;;17.20;9.50;;;14.00;96.60;;;;;;5074189;28;20048;-73
2023/05/06 07:01:28;;;;;;;15.60;10.45;;;14.10;96.80;;;;;;5074898;28;20569;-73
2023/05/06 07:03:54;;;;;;;15.02;10.13;;;14.20;97.30;;;;;;5073998;28;20025;-74
2023/05/06 07:06:20;;;;;;;18.75;10.95;;;14.10;97.30;;;;;;5074902;28;20025;-73
2023/05/06 07:08:45;;;;;;;16.35;10.13;;;14.20;97.40;;;;;;5073873;28;20041;-74
2023/05/06 07:11:13;;;;;;;16.95;10.65;;;14.20;97.60;;;;;;5074494;28;20045;-74
2023/05/06 07:13:38;;;;;;;18.35;10.63;;;14.20;97.70;;;;;;5073862;28;20017;-73
2023/05/06 07:16:04;;;;;;;16.15;10.18;;;14.30;97.20;;;;;;5074757;28;20025;-73
2023/05/06 07:18:30;;;;;;;15.50;9.60;;;14.30;97.50;;;;;;5057121;28;20044;-73
2023/05/06 07:20:55;;;;;;;16.63;10.73;;;14.40;97.20;;;;;;5073609;28;20113;-73
2023/05/06 07:23:21;;;;;;;18.88;11.35;;;14.50;97.10;;;;;;5074594;28;20075;-73
2023/05/06 07:25:47;;;;;;;16.88;11.40;;;14.50;97.10;;;;;;5074566;28;20032;-73
2023/05/06 07:28:13;;;;;;;17.60;11.20;;;14.60;97.20;;;;;;5074500;28;20021;-73
2023/05/06 07:30:39;;;;;;;16.92;10.57;;;14.70;96.90;;;;;;5074450;28;20095;-73
2023/05/06 07:33:04;;;;;;;18.42;10.27;;;14.70;97.00;;;;;;5074335;28;20025;-73
2023/05/06 07:35:30;;;;;;;17.77;11.18;;;14.70;97.20;;;;;;5073471;28;20036;-73
2023/05/06 07:37:56;;;;;;;18.70;11.55;;;14.80;97.00;;;;;;5074347;28;20062;-73
2023/05/06 07:40:21;;;;;;;19.70;12.43;;;14.90;97.10;;;;;;5074157;28;20025;-73
2023/05/06 07:42:47;;;;;;;16.45;11.07;;;15.00;96.80;;;;;;5074016;28;20086;-73
2023/05/06 07:45:14;;;;;;;19.25;12.25;;;15.10;97.00;;;;;;5073227;28;20021;-73
2023/05/06 07:47:39;;;;;;;20.05;12.15;;;15.10;96.90;;;;;;5074171;28;20017;-73
2023/05/06 07:50:06;;;;;;;21.48;11.57;;;15.20;96.70;;;;;;5073093;28;20097;-73
2023/05/06 07:52:31;;;;;;;21.17;12.55;;;15.40;96.50;;;;;;5072963;28;20060;-73
2023/05/06 07:54:57;;;;;;;18.08;12.43;;;15.50;96.90;;;;;;5073960;28;20041;-73
2023/05/06 07:57:23;;;;;;;20.38;12.18;;;15.60;96.70;;;;;;5073063;28;20092;-73
2023/05/06 07:59:50;;;;;;;20.40;11.63;;;15.60;96.90;;;;;;5072973;28;20031;-73
2023/05/06 08:02:16;;;;;;;19.08;10.93;;;15.70;96.40;;;;;;5073751;28;20029;-73
2023/05/06 08:04:42;;;;;;;16.88;10.50;;;15.70;96.00;;;;;;5073806;28;20021;-74
2023/05/06 08:07:08;;;;;;;19.35;11.02;;;15.80;95.60;;;;;;5073730;28;20036;-73
2023/05/06 08:09:34;;;;;;;17.00;10.43;;;15.80;95.50;;;;;;5056086;28;20025;-73
2023/05/06 08:12:00;;;;;;;18.42;10.95;;;15.90;95.30;;;;;;5073661;28;20043;-73
2023/05/06 08:14:26;;;;;;;17.55;10.68;;;15.90;95.50;;;;;;5073803;28;20092;-74
2023/05/06 08:16:52;;;;;;;15.30;10.70;;;16.10;95.20;;;;;;5073594;28;20393;-73
2023/05/06 08:19:17;;;;;;;16.50;9.45;;;16.20;95.60;;;;;;5072688;28;20047;-73
2023/05/06 08:21:43;;;;;;;13.85;9.32;;;16.30;94.90;;;;;;5072198;28;20028;-73
2023/05/06 08:24:09;;;;;;;14.80;9.63;;;16.40;94.70;;;;;;5073069;28;20040;-73
2023/05/06 08:26:35;;;;;;;16.73;9.25;;;16.40;94.70;;;;;;5073474;28;20017;-74
2023/05/06 08:29:02;;;;;;;12.85;8.38;;;16.50;94.90;;;;;;5073391;28;20078;-73
2023/05/06 08:31:27;;;;;;;13.27;8.48;;;16.60;94.70;;;;;;5073557;28;20017;-74
2023/05/06 08:33:53;;;;;;;12.32;7.85;;;16.60;94.40;;;;;;5073299;28;20033;-73
2023/05/06 08:36:19;;;;;;;13.55;7.47;;;16.70;94.00;;;;;;5073323;28;20025;-74
2023/05/06 08:38:49;;;;;;;11.95;8.02;;;16.70;93.60;;;;;;5072381;28;20404;-73
2023/05/06 08:41:17;;;;;;;13.25;8.05;;;16.70;93.30;;;;;;5073237;28;20053;-73
2023/05/06 08:43:46;;;;;;;12.85;7.05;;;16.80;93.90;;;;;;5073265;28;20045;-73
2023/05/06 08:46:12;;;;;;;12.30;7.38;;;16.90;93.20;;;;;;5073130;28;20048;-73
2023/05/06 08:48:38;;;;;;;11.40;7.28;;;17.00;93.40;;;;;;5073146;28;20021;-73
2023/05/06 08:51:04;;;;;;;8.68;5.78;;;17.00;93.10;;;;;;5073112;28;20039;-73
2023/05/06 08:53:32;;;;;;;9.23;6.22;;;17.10;92.90;;;;;;5055669;28;20045;-73
2023/05/06 08:56:02;;;;;;;11.10;6.22;;;17.10;92.50;;;;;;5073091;28;20025;-73
2023/05/06 08:58:32;;;;;;;9.52;6.32;;;17.30;92.40;;;;;;5073118;28;20048;-73
2023/05/06 09:00:59;;;;;;;11.35;6.13;;;17.40;92.10;;;;;;5072973;28;20029;-73
2023/05/06 09:03:24;;;;;;;7.68;5.07;;;17.50;91.80;;;;;;5072994;28;20032;-73
2023/05/06 09:05:50;;;;;;;8.75;5.13;;;17.40;91.30;;;;;;5073042;28;20044;-73
2023/05/06 09:08:16;;;;;;;10.38;5.00;;;17.50;91.20;;;;;;5073076;28;20025;-74
2023/05/06 09:10:43;;;;;;;8.13;5.15;;;17.70;91.10;;;;;;5072956;28;20029;-73
2023/05/06 09:13:15;;;;;;;10.07;5.53;;;17.80;90.00;;;;;;5072911;28;20033;-73
2023/05/06 09:15:52;;;;;;;11.95;6.32;;;17.90;90.10;;;;;;5072002;28;20054;-73
2023/05/06 09:18:18;;;;;;;10.32;5.88;;;17.90;89.60;;;;;;5071871;28;20044;-74
2023/05/06 09:20:48;;;;;;;9.25;5.53;;;17.90;90.50;;;;;;5072788;28;20029;-74
2023/05/06 09:23:15;;;;;;;9.15;5.53;;;17.90;89.70;;;;;;5072842;28;20021;-73
2023/05/06 09:25:43;;;;;;;9.23;5.70;;;17.90;88.30;;;;;;5072799;28;20078;-74
2023/05/06 09:28:11;;;;;;;8.40;5.43;;;17.90;87.60;;;;;;5072741;28;20021;-74
2023/05/06 09:30:42;;;;;;;8.15;5.43;;;18.00;87.80;;;;;;5072781;28;20085;-73
2023/05/06 09:33:09;;;;;;;10.02;5.53;;;18.10;87.70;;;;;;5072806;28;20028;-73
2023/05/06 09:35:39;;;;;;;10.40;5.38;;;18.20;89.50;;;;;;5076627;28;20029;-74
2023/05/06 09:38:06;;;;;;;116.95;56.88;;;18.30;87.30;;;;;;5076614;28;20036;-74
2023/05/06 09:40:32;;;;;;;13.57;7.07;;;18.40;88.80;;;;;;5076497;28;20032;-76
2023/05/06 09:42:59;;;;;;;40.00;11.48;;;18.50;87.00;;;;;;5075351;28;20508;-72
2023/05/06 09:45:25;;;;;;;11.40;7.05;;;18.50;87.30;;;;;;5076504;28;20079;-74
2023/05/06 09:47:52;;;;;;;11.48;6.10;;;18.50;86.80;;;;;;5076424;28;20027;-73
2023/05/06 09:50:21;;;;;;;9.63;5.63;;;18.60;88.30;;;;;;5075434;28;20017;-73
2023/05/06 09:52:48;;;;;;;8.75;5.00;;;18.60;87.60;;;;;;5076363;28;20059;-74
2023/05/06 09:55:13;;;;;;;7.30;4.60;;;18.80;87.70;;;;;;5076315;28;20045;-74
2023/05/06 09:57:40;;;;;;;10.40;5.53;;;18.90;84.70;;;;;;5076292;28;20048;-73
2023/05/06 10:00:13;;;;;;;10.18;5.97;;;18.90;83.00;;;;;;5075363;28;20029;-74
2023/05/06 10:02:39;;;;;;;10.98;6.70;;;18.90;84.40;;;;;;5076301;28;20029;-73
2023/05/06 10:05:07;;;;;;;9.00;5.80;;;18.90;85.00;;;;;;5076085;28;20094;-73
2023/05/06 10:07:34;;;;;;;7.25;5.13;;;19.10;84.50;;;;;;5075186;28;20041;-73
2023/05/06 10:10:01;;;;;;;6.70;4.40;;;19.10;83.50;;;;;;5076015;28;20029;-73
2023/05/06 10:12:27;;;;;;;18.05;7.57;;;19.20;82.10;;;;;;5075099;28;20040;-73
2023/05/06 10:14:53;;;;;;;7.00;4.55;;;19.30;79.90;;;;;;5075908;28;20029;-73
2023/05/06 10:17:23;;;;;;;6.97;5.13;;;19.30;81.70;;;;;;5075880;28;20044;-73
2023/05/06 10:19:51;;;;;;;11.85;5.35;;;19.30;81.40;;;;;;5075836;28;20021;-73
2023/05/06 10:22:39;;;;;;;9.48;5.50;;;19.30;80.20;;;;;;5074743;28;20036;-73
2023/05/06 10:25:18;;;;;;;8.57;5.70;;;19.30;80.50;;;;;;5074708;28;20388;-73
2023/05/06 10:27:45;;;;;;;8.90;5.75;;;19.30;80.20;;;;;;5075767;28;20013;-73
2023/05/06 10:30:15;;;;;;;9.77;5.97;;;19.30;80.30;;;;;;5075637;28;20472;-73
2023/05/06 10:32:43;;;;;;;7.97;5.88;;;19.30;79.60;;;;;;5075630;28;20021;-73
2023/05/06 10:35:18;;;;;;;8.43;5.82;;;19.30;79.60;;;;;;5075487;28;20049;-73
2023/05/06 10:37:46;;;;;;;8.32;5.53;;;19.40;81.20;;;;;;5075550;28;20025;-73
2023/05/06 10:40:13;;;;;;;8.68;5.30;;;19.40;80.10;;;;;;5075356;28;20020;-73
2023/05/06 10:42:39;;;;;;;8.57;5.38;;;19.50;80.80;;;;;;5075290;28;20045;-73
2023/05/06 10:45:07;;;;;;;9.60;5.55;;;19.50;79.80;;;;;;5074823;28;20021;-73
2023/05/06 10:47:51;;;;;;;5.60;4.15;;;19.50;80.20;;;;;;5075246;28;20017;-73
2023/05/06 10:50:18;;;;;;;6.03;3.70;;;19.50;78.20;;;;;;5075283;28;20103;-73
2023/05/06 10:52:45;;;;;;;6.85;3.83;;;19.60;77.40;;;;;;5074169;28;20441;-72
2023/05/06 10:55:30;;;;;;;6.65;3.60;;;19.70;78.60;;;;;;5075165;28;20392;-73
2023/05/06 10:58:01;;;;;;;6.03;3.50;;;19.80;78.90;;;;;;5075152;28;20044;-73
2023/05/06 11:00:31;;;;;;;6.80;3.80;;;19.60;77.50;;;;;;5075041;28;20029;-73
2023/05/06 11:02:59;;;;;;;5.18;3.35;;;19.60;77.20;;;;;;5075087;28;20042;-73
2023/05/06 11:05:25;;;;;;;5.40;3.08;;;19.60;76.60;;;;;;5073976;28;20042;-73
2023/05/06 11:07:54;;;;;;;6.10;3.05;;;19.70;75.90;;;;;;5074963;28;20021;-73
2023/05/06 11:10:33;;;;;;;5.00;2.70;;;19.80;74.40;;;;;;5073851;28;20036;-73
2023/05/06 11:13:18;;;;;;;3.40;2.17;;;20.00;75.50;;;;;;5074868;28;20055;-73
2023/05/06 11:15:45;;;;;;;5.72;2.97;;;20.10;75.00;;;;;;5074854;28;20017;-73
2023/05/06 11:18:35;;;;;;;3.15;2.50;;;20.10;71.70;;;;;;5073693;28;20029;-73
2023/05/06 11:21:01;;;;;;;5.38;2.78;;;19.90;72.90;;;;;;5074804;28;20032;-73
2023/05/06 11:23:48;;;;;;;4.50;2.60;;;19.80;74.50;;;;;;5074609;28;20088;-73
2023/05/06 11:26:14;;;;;;;5.53;2.30;;;19.90;73.90;;;;;;5074639;28;20072;-73
2023/05/06 11:28:45;;;;;;;4.15;2.20;;;19.90;73.20;;;;;;5074529;28;20049;-73
2023/05/06 11:31:12;;;;;;;3.65;2.13;;;20.00;71.90;;;;;;5074546;28;20020;-73
2023/05/06 11:33:45;;;;;;;4.63;2.00;;;20.10;73.10;;;;;;5073498;28;20025;-73
2023/05/06 11:36:15;;;;;;;4.65;2.28;;;20.10;72.20;;;;;;5074436;28;20029;-73
2023/05/06 11:38:45;;;;;;;4.00;1.95;;;20.20;72.80;;;;;;5074453;28;20037;-73
2023/05/06 11:41:11;;;;;;;5.80;1.88;;;20.20;71.30;;;;;;5074396;28;20114;-73
2023/05/06 11:43:37;;;;;;;3.65;1.45;;;20.20;72.70;;;;;;5072920;28;20048;-73
2023/05/06 11:46:03;;;;;;;2.92;1.60;;;20.20;71.60;;;;;;5073271;28;20025;-73
2023/05/06 11:48:29;;;;;;;2.80;1.80;;;20.20;71.30;;;;;;5074219;28;20025;-73
2023/05/06 11:50:55;;;;;;;3.22;1.55;;;20.20;72.20;;;;;;5073193;28;20032;-73
2023/05/06 11:53:22;;;;;;;3.70;1.90;;;20.20;72.90;;;;;;5056560;28;20476;-73
2023/05/06 11:55:51;;;;;;;3.95;2.08;;;20.30;72.40;;;;;;5074032;28;20064;-73
2023/05/06 11:58:19;;;;;;;4.80;2.38;;;20.50;72.50;;;;;;5073039;28;20040;-73
2023/05/06 12:00:49;;;;;;;3.63;2.15;;;20.50;71.00;;;;;;5073741;28;20025;-73
2023/05/06 12:03:14;;;;;;;3.88;1.80;;;20.60;71.30;;;;;;5074034;28;20015;-73
2023/05/06 12:05:41;;;;;;;3.60;1.48;;;20.60;71.00;;;;;;5073832;28;20468;-73
2023/05/06 12:08:08;;;;;;;4.05;1.67;;;20.50;69.20;;;;;;5073796;28;20029;-73
2023/05/06 12:10:34;;;;;;;3.08;1.45;;;20.50;72.10;;;;;;5073729;28;20025;-73
2023/05/06 12:13:00;;;;;;;4.40;1.60;;;20.60;71.90;;;;;;5072635;28;20025;-73
2023/05/06 12:15:26;;;;;;;3.40;1.70;;;20.50;71.60;;;;;;5073676;28;20029;-73
2023/05/06 12:17:51;;;;;;;4.35;1.88;;;20.70;70.10;;;;;;5073576;28;20044;-73
2023/05/06 12:20:19;;;;;;;3.65;2.17;;;20.80;70.40;;;;;;5073510;28;20037;-73
2023/05/06 12:22:45;;;;;;;3.78;1.80;;;21.00;68.50;;;;;;5072555;28;20013;-73
2023/05/06 12:25:14;;;;;;;4.47;1.45;;;21.00;68.70;;;;;;5055848;28;20036;-73
2023/05/06 12:27:40;;;;;;;3.92;2.20;;;21.00;68.80;;;;;;5072517;28;20033;-73
2023/05/06 12:30:07;;;;;;;5.00;2.40;;;20.90;69.30;;;;;;5073457;28;20032;-73
2023/05/06 12:32:33;;;;;;;3.83;2.03;;;20.90;68.10;;;;;;5073410;28;20024;-73
2023/05/06 12:35:04;;;;;;;4.00;2.28;;;20.90;68.40;;;;;;5072312;28;20021;-73
2023/05/06 12:37:30;;;;;;;3.55;2.13;;;21.00;69.50;;;;;;5072504;28;20021;-73
2023/05/06 12:39:56;;;;;;;3.75;2.00;;;20.90;69.00;;;;;;5073220;28;20021;-73
2023/05/06 12:42:22;;;;;;;3.85;2.08;;;20.90;69.00;;;;;;5072006;28;20144;-73